sensor_id;sensor_type;location;lat;lon;timestamp;P1;durP1;ratioP1;P2;durP2;ratioP2
4971;SDS011;2501;51.214;6.768;2023-07-02T00:01:01;7.00;;;3.35;;
4971;SDS011;2501;51.214;6.768;2023-07-02T00:03:30;4.40;;;3.10;;
4971;SDS011;2501;51.214;6.768;2023-07-02T00:05:58;6.80;;;3.30;;
4971;SDS011;2501;51.214;6.768;2023-07-02T00:08:27;10.85;;;3.50;;
4971;SDS011;2501;51.214;6.768;2023-07-02T00:10:58;7.90;;;3.58;;
4971;SDS011;2501;51.214;6.768;2023-07-02T00:13:26;7.27;;;3.10;;
4971;SDS011;2501;51.214;6.768;2023-07-02T00:15:54;8.80;;;3.33;;
4971;SDS011;2501;51.214;6.768;2023-07-02T00:18:23;7.57;;;3.40;;
4971;SDS011;2501;51.214;6.768;2023-07-02T00:20:58;9.75;;;3.17;;
4971;SDS011;2501;51.214;6.768;2023-07-02T00:23:28;7.90;;;3.05;;
4971;SDS011;2501;51.214;6.768;2023-07-02T00:26:00;8.43;;;3.50;;
4971;SDS011;2501;51.214;6.768;2023-07-02T00:28:28;8.10;;;3.30;;
4971;SDS011;2501;51.214;6.768;2023-07-02T00:30:56;8.80;;;3.53;;
4971;SDS011;2501;51.214;6.768;2023-07-02T00:33:26;10.00;;;3.00;;
4971;SDS011;2501;51.214;6.768;2023-07-02T00:35:54;9.23;;;3.67;;
4971;SDS011;2501;51.214;6.768;2023-07-02T00:38:25;9.50;;;3.78;;
4971;SDS011;2501;51.214;6.768;2023-07-02T00:40:54;7.15;;;4.15;;
4971;SDS011;2501;51.214;6.768;2023-07-02T00:43:25;9.90;;;3.60;;
4971;SDS011;2501;51.214;6.768;2023-07-02T00:45:53;7.25;;;4.18;;
4971;SDS011;2501;51.214;6.768;2023-07-02T00:48:22;7.70;;;3.50;;
4971;SDS011;2501;51.214;6.768;2023-07-02T00:50:50;6.88;;;3.90;;
4971;SDS011;2501;51.214;6.768;2023-07-02T00:53:19;7.60;;;4.03;;
4971;SDS011;2501;51.214;6.768;2023-07-02T00:55:48;10.53;;;4.20;;
4971;SDS011;2501;51.214;6.768;2023-07-02T00:58:16;11.57;;;5.37;;
4971;SDS011;2501;51.214;6.768;2023-07-02T01:00:48;8.60;;;4.88;;
4971;SDS011;2501;51.214;6.768;2023-07-02T01:03:18;11.52;;;5.00;;
4971;SDS011;2501;51.214;6.768;2023-07-02T01:05:46;16.23;;;5.25;;
4971;SDS011;2501;51.214;6.768;2023-07-02T01:08:14;8.25;;;4.65;;
4971;SDS011;2501;51.214;6.768;2023-07-02T01:10:43;9.80;;;5.10;;
4971;SDS011;2501;51.214;6.768;2023-07-02T01:13:12;9.00;;;5.13;;
4971;SDS011;2501;51.214;6.768;2023-07-02T01:15:44;15.60;;;5.70;;
4971;SDS011;2501;51.214;6.768;2023-07-02T01:18:16;17.73;;;6.53;;
4971;SDS011;2501;51.214;6.768;2023-07-02T01:20:47;13.88;;;5.75;;
4971;SDS011;2501;51.214;6.768;2023-07-02T01:23:16;17.15;;;6.90;;
4971;SDS011;2501;51.214;6.768;2023-07-02T01:25:44;12.63;;;6.00;;
4971;SDS011;2501;51.214;6.768;2023-07-02T01:28:13;15.48;;;6.60;;
4971;SDS011;2501;51.214;6.768;2023-07-02T01:30:41;16.83;;;7.15;;
4971;SDS011;2501;51.214;6.768;2023-07-02T01:33:10;15.02;;;6.90;;
4971;SDS011;2501;51.214;6.768;2023-07-02T01:35:38;12.20;;;7.13;;
4971;SDS011;2501;51.214;6.768;2023-07-02T01:38:09;15.77;;;6.97;;
4971;SDS011;2501;51.214;6.768;2023-07-02T01:40:38;16.83;;;6.85;;
4971;SDS011;2501;51.214;6.768;2023-07-02T01:43:06;20.77;;;7.82;;
4971;SDS011;2501;51.214;6.768;2023-07-02T01:45:36;18.55;;;8.10;;
4971;SDS011;2501;51.214;6.768;2023-07-02T01:48:05;19.02;;;8.18;;
4971;SDS011;2501;51.214;6.768;2023-07-02T01:50:34;20.53;;;8.40;;
4971;SDS011;2501;51.214;6.768;2023-07-02T01:53:02;16.50;;;7.70;;
4971;SDS011;2501;51.214;6.768;2023-07-02T01:55:33;22.07;;;8.53;;
4971;SDS011;2501;51.214;6.768;2023-07-02T01:58:01;19.95;;;8.98;;
4971;SDS011;2501;51.214;6.768;2023-07-02T02:00:30;20.08;;;8.32;;
4971;SDS011;2501;51.214;6.768;2023-07-02T02:02:58;19.65;;;8.35;;
4971;SDS011;2501;51.214;6.768;2023-07-02T02:05:27;16.95;;;8.20;;
4971;SDS011;2501;51.214;6.768;2023-07-02T02:07:55;21.48;;;8.07;;
4971;SDS011;2501;51.214;6.768;2023-07-02T02:10:23;18.52;;;8.80;;
4971;SDS011;2501;51.214;6.768;2023-07-02T02:12:54;22.70;;;10.32;;
4971;SDS011;2501;51.214;6.768;2023-07-02T02:15:23;21.00;;;9.20;;
4971;SDS011;2501;51.214;6.768;2023-07-02T02:17:51;23.07;;;9.93;;
4971;SDS011;2501;51.214;6.768;2023-07-02T02:20:20;22.90;;;9.80;;
4971;SDS011;2501;51.214;6.768;2023-07-02T02:22:48;24.10;;;9.87;;
4971;SDS011;2501;51.214;6.768;2023-07-02T02:25:16;21.20;;;10.07;;
4971;SDS011;2501;51.214;6.768;2023-07-02T02:27:45;24.35;;;10.07;;
4971;SDS011;2501;51.214;6.768;2023-07-02T02:30:16;21.83;;;11.03;;
4971;SDS011;2501;51.214;6.768;2023-07-02T02:32:44;29.60;;;11.70;;
4971;SDS011;2501;51.214;6.768;2023-07-02T02:35:14;26.65;;;10.93;;
4971;SDS011;2501;51.214;6.768;2023-07-02T02:37:42;26.23;;;11.18;;
4971;SDS011;2501;51.214;6.768;2023-07-02T02:40:11;26.10;;;10.95;;
4971;SDS011;2501;51.214;6.768;2023-07-02T02:42:40;28.35;;;11.60;;
4971;SDS011;2501;51.214;6.768;2023-07-02T02:45:09;23.63;;;10.88;;
4971;SDS011;2501;51.214;6.768;2023-07-02T02:47:40;28.98;;;11.70;;
4971;SDS011;2501;51.214;6.768;2023-07-02T02:50:09;24.80;;;11.18;;
4971;SDS011;2501;51.214;6.768;2023-07-02T02:52:40;27.17;;;11.95;;
4971;SDS011;2501;51.214;6.768;2023-07-02T02:55:09;26.70;;;12.30;;
4971;SDS011;2501;51.214;6.768;2023-07-02T02:57:38;23.43;;;11.90;;
4971;SDS011;2501;51.214;6.768;2023-07-02T03:00:08;29.05;;;12.23;;
4971;SDS011;2501;51.214;6.768;2023-07-02T03:02:40;25.17;;;12.13;;
4971;SDS011;2501;51.214;6.768;2023-07-02T03:05:09;28.40;;;13.35;;
4971;SDS011;2501;51.214;6.768;2023-07-02T03:07:38;30.40;;;12.60;;
4971;SDS011;2501;51.214;6.768;2023-07-02T03:10:06;26.55;;;12.18;;
4971;SDS011;2501;51.214;6.768;2023-07-02T03:12:36;27.08;;;12.95;;
4971;SDS011;2501;51.214;6.768;2023-07-02T03:15:05;26.67;;;12.63;;
4971;SDS011;2501;51.214;6.768;2023-07-02T03:17:34;25.83;;;12.75;;
4971;SDS011;2501;51.214;6.768;2023-07-02T03:20:06;28.20;;;13.17;;
4971;SDS011;2501;51.214;6.768;2023-07-02T03:22:35;26.35;;;13.85;;
4971;SDS011;2501;51.214;6.768;2023-07-02T03:25:04;29.53;;;13.37;;
4971;SDS011;2501;51.214;6.768;2023-07-02T03:27:33;33.13;;;13.32;;
4971;SDS011;2501;51.214;6.768;2023-07-02T03:30:01;29.98;;;14.23;;
4971;SDS011;2501;51.214;6.768;2023-07-02T03:32:30;28.52;;;14.45;;
4971;SDS011;2501;51.214;6.768;2023-07-02T03:34:58;33.40;;;14.32;;
4971;SDS011;2501;51.214;6.768;2023-07-02T03:37:29;33.90;;;13.93;;
4971;SDS011;2501;51.214;6.768;2023-07-02T03:39:57;29.95;;;14.50;;
4971;SDS011;2501;51.214;6.768;2023-07-02T03:42:26;27.42;;;13.65;;
4971;SDS011;2501;51.214;6.768;2023-07-02T03:44:54;31.67;;;14.52;;
4971;SDS011;2501;51.214;6.768;2023-07-02T03:47:23;32.60;;;14.60;;
4971;SDS011;2501;51.214;6.768;2023-07-02T03:49:51;35.00;;;15.00;;
4971;SDS011;2501;51.214;6.768;2023-07-02T03:52:20;30.73;;;14.43;;
4971;SDS011;2501;51.214;6.768;2023-07-02T03:54:51;34.13;;;15.15;;
4971;SDS011;2501;51.214;6.768;2023-07-02T03:57:19;30.35;;;14.73;;
4971;SDS011;2501;51.214;6.768;2023-07-02T03:59:47;39.00;;;15.40;;
4971;SDS011;2501;51.214;6.768;2023-07-02T04:02:16;30.95;;;14.82;;
4971;SDS011;2501;51.214;6.768;2023-07-02T04:04:44;40.05;;;16.00;;
4971;SDS011;2501;51.214;6.768;2023-07-02T04:07:12;30.92;;;15.32;;
4971;SDS011;2501;51.214;6.768;2023-07-02T04:09:41;40.55;;;16.30;;
4971;SDS011;2501;51.214;6.768;2023-07-02T04:12:12;35.22;;;16.00;;
4971;SDS011;2501;51.214;6.768;2023-07-02T04:14:40;35.00;;;15.85;;
4971;SDS011;2501;51.214;6.768;2023-07-02T04:17:09;33.55;;;15.73;;
4971;SDS011;2501;51.214;6.768;2023-07-02T04:19:37;35.30;;;16.00;;
4971;SDS011;2501;51.214;6.768;2023-07-02T04:22:06;38.38;;;17.23;;
4971;SDS011;2501;51.214;6.768;2023-07-02T04:24:34;34.35;;;16.88;;
4971;SDS011;2501;51.214;6.768;2023-07-02T04:27:02;37.25;;;17.40;;
4971;SDS011;2501;51.214;6.768;2023-07-02T04:29:34;40.53;;;17.85;;
4971;SDS011;2501;51.214;6.768;2023-07-02T04:32:02;40.75;;;16.65;;
4971;SDS011;2501;51.214;6.768;2023-07-02T04:34:31;42.60;;;17.70;;
4971;SDS011;2501;51.214;6.768;2023-07-02T04:37:01;42.83;;;17.88;;
4971;SDS011;2501;51.214;6.768;2023-07-02T04:39:29;41.97;;;17.60;;
4971;SDS011;2501;51.214;6.768;2023-07-02T04:41:59;35.40;;;17.35;;
4971;SDS011;2501;51.214;6.768;2023-07-02T04:44:27;39.03;;;16.98;;
4971;SDS011;2501;51.214;6.768;2023-07-02T04:47:00;33.65;;;16.48;;
4971;SDS011;2501;51.214;6.768;2023-07-02T04:49:29;40.20;;;17.25;;
4971;SDS011;2501;51.214;6.768;2023-07-02T04:51:58;36.97;;;17.42;;
4971;SDS011;2501;51.214;6.768;2023-07-02T04:54:26;38.53;;;17.27;;
4971;SDS011;2501;51.214;6.768;2023-07-02T04:56:55;36.05;;;18.08;;
4971;SDS011;2501;51.214;6.768;2023-07-02T04:59:24;37.60;;;17.38;;
4971;SDS011;2501;51.214;6.768;2023-07-02T05:01:52;34.47;;;17.73;;
4971;SDS011;2501;51.214;6.768;2023-07-02T05:04:23;38.38;;;17.33;;
4971;SDS011;2501;51.214;6.768;2023-07-02T05:06:52;41.05;;;18.15;;
4971;SDS011;2501;51.214;6.768;2023-07-02T05:09:21;38.95;;;17.75;;
4971;SDS011;2501;51.214;6.768;2023-07-02T05:11:49;48.42;;;18.92;;
4971;SDS011;2501;51.214;6.768;2023-07-02T05:14:18;39.33;;;18.65;;
4971;SDS011;2501;51.214;6.768;2023-07-02T05:16:46;39.75;;;18.80;;
4971;SDS011;2501;51.214;6.768;2023-07-02T05:19:14;41.08;;;18.13;;
4971;SDS011;2501;51.214;6.768;2023-07-02T05:21:45;44.25;;;19.20;;
4971;SDS011;2501;51.214;6.768;2023-07-02T05:24:17;40.07;;;18.70;;
4971;SDS011;2501;51.214;6.768;2023-07-02T05:26:45;37.93;;;18.03;;
4971;SDS011;2501;51.214;6.768;2023-07-02T05:29:15;41.70;;;19.67;;
4971;SDS011;2501;51.214;6.768;2023-07-02T05:31:44;49.42;;;19.70;;
4971;SDS011;2501;51.214;6.768;2023-07-02T05:34:12;41.28;;;19.73;;
4971;SDS011;2501;51.214;6.768;2023-07-02T05:36:41;41.92;;;17.85;;
4971;SDS011;2501;51.214;6.768;2023-07-02T05:39:12;42.83;;;18.98;;
4971;SDS011;2501;51.214;6.768;2023-07-02T05:41:40;41.55;;;19.45;;
4971;SDS011;2501;51.214;6.768;2023-07-02T05:44:08;44.00;;;19.30;;
4971;SDS011;2501;51.214;6.768;2023-07-02T05:46:37;41.17;;;18.85;;
4971;SDS011;2501;51.214;6.768;2023-07-02T05:49:05;39.80;;;17.98;;
4971;SDS011;2501;51.214;6.768;2023-07-02T05:51:34;42.67;;;18.80;;
4971;SDS011;2501;51.214;6.768;2023-07-02T05:54:02;43.38;;;19.13;;
4971;SDS011;2501;51.214;6.768;2023-07-02T05:56:33;43.85;;;20.10;;
4971;SDS011;2501;51.214;6.768;2023-07-02T05:59:02;40.75;;;19.25;;
4971;SDS011;2501;51.214;6.768;2023-07-02T06:01:30;44.67;;;19.17;;
4971;SDS011;2501;51.214;6.768;2023-07-02T06:03:58;38.20;;;18.52;;
4971;SDS011;2501;51.214;6.768;2023-07-02T06:06:27;50.10;;;17.73;;
4971;SDS011;2501;51.214;6.768;2023-07-02T06:09:01;39.60;;;17.70;;
4971;SDS011;2501;51.214;6.768;2023-07-02T06:11:33;40.38;;;19.10;;
4971;SDS011;2501;51.214;6.768;2023-07-02T06:14:03;44.47;;;19.10;;
4971;SDS011;2501;51.214;6.768;2023-07-02T06:16:32;30.38;;;16.13;;
4971;SDS011;2501;51.214;6.768;2023-07-02T06:19:00;42.65;;;18.90;;
4971;SDS011;2501;51.214;6.768;2023-07-02T06:21:29;36.60;;;17.13;;
4971;SDS011;2501;51.214;6.768;2023-07-02T06:23:57;39.47;;;17.70;;
4971;SDS011;2501;51.214;6.768;2023-07-02T06:26:27;46.08;;;18.50;;
4971;SDS011;2501;51.214;6.768;2023-07-02T06:28:59;45.97;;;19.02;;
4971;SDS011;2501;51.214;6.768;2023-07-02T06:31:28;45.50;;;18.27;;
4971;SDS011;2501;51.214;6.768;2023-07-02T06:33:56;35.50;;;17.73;;
4971;SDS011;2501;51.214;6.768;2023-07-02T06:36:25;42.83;;;19.40;;
4971;SDS011;2501;51.214;6.768;2023-07-02T06:38:53;37.83;;;18.88;;
4971;SDS011;2501;51.214;6.768;2023-07-02T06:41:21;45.13;;;18.90;;
4971;SDS011;2501;51.214;6.768;2023-07-02T06:43:50;40.70;;;19.15;;
4971;SDS011;2501;51.214;6.768;2023-07-02T06:46:21;44.42;;;18.50;;
4971;SDS011;2501;51.214;6.768;2023-07-02T06:48:49;37.78;;;17.85;;
4971;SDS011;2501;51.214;6.768;2023-07-02T06:51:18;38.60;;;18.02;;
4971;SDS011;2501;51.214;6.768;2023-07-02T06:53:47;43.65;;;17.75;;
4971;SDS011;2501;51.214;6.768;2023-07-02T06:56:16;38.88;;;16.85;;
4971;SDS011;2501;51.214;6.768;2023-07-02T06:58:44;39.10;;;17.27;;
4971;SDS011;2501;51.214;6.768;2023-07-02T07:01:13;37.97;;;15.50;;
4971;SDS011;2501;51.214;6.768;2023-07-02T07:03:44;40.63;;;16.50;;
4971;SDS011;2501;51.214;6.768;2023-07-02T07:06:13;31.88;;;15.50;;
4971;SDS011;2501;51.214;6.768;2023-07-02T07:08:41;39.92;;;16.30;;
4971;SDS011;2501;51.214;6.768;2023-07-02T07:11:10;38.45;;;16.73;;
4971;SDS011;2501;51.214;6.768;2023-07-02T07:13:38;34.50;;;15.30;;
4971;SDS011;2501;51.214;6.768;2023-07-02T07:16:08;33.65;;;14.73;;
4971;SDS011;2501;51.214;6.768;2023-07-02T07:18:37;29.65;;;14.02;;
4971;SDS011;2501;51.214;6.768;2023-07-02T07:21:08;31.23;;;13.75;;
4971;SDS011;2501;51.214;6.768;2023-07-02T07:23:36;31.23;;;14.63;;
4971;SDS011;2501;51.214;6.768;2023-07-02T07:26:05;29.98;;;14.07;;
4971;SDS011;2501;51.214;6.768;2023-07-02T07:28:33;35.78;;;15.15;;
4971;SDS011;2501;51.214;6.768;2023-07-02T07:31:02;37.50;;;14.07;;
4971;SDS011;2501;51.214;6.768;2023-07-02T07:33:30;30.42;;;13.20;;
4971;SDS011;2501;51.214;6.768;2023-07-02T07:35:59;32.47;;;14.70;;
4971;SDS011;2501;51.214;6.768;2023-07-02T07:38:30;31.83;;;14.10;;
4971;SDS011;2501;51.214;6.768;2023-07-02T07:40:58;31.20;;;14.15;;
4971;SDS011;2501;51.214;6.768;2023-07-02T07:43:27;33.60;;;14.02;;
4971;SDS011;2501;51.214;6.768;2023-07-02T07:45:55;33.83;;;14.07;;
4971;SDS011;2501;51.214;6.768;2023-07-02T07:48:24;31.23;;;14.73;;
4971;SDS011;2501;51.214;6.768;2023-07-02T07:50:52;32.65;;;13.27;;
4971;SDS011;2501;51.214;6.768;2023-07-02T07:53:21;34.50;;;14.75;;
4971;SDS011;2501;51.214;6.768;2023-07-02T07:55:52;31.98;;;14.07;;
4971;SDS011;2501;51.214;6.768;2023-07-02T07:58:20;32.40;;;14.30;;
4971;SDS011;2501;51.214;6.768;2023-07-02T08:00:49;33.63;;;14.10;;
4971;SDS011;2501;51.214;6.768;2023-07-02T08:03:17;32.30;;;14.02;;
4971;SDS011;2501;51.214;6.768;2023-07-02T08:05:46;27.20;;;13.80;;
4971;SDS011;2501;51.214;6.768;2023-07-02T08:08:14;37.70;;;14.80;;
4971;SDS011;2501;51.214;6.768;2023-07-02T08:10:43;35.00;;;15.85;;
4971;SDS011;2501;51.214;6.768;2023-07-02T08:13:16;33.45;;;14.50;;
4971;SDS011;2501;51.214;6.768;2023-07-02T08:15:45;30.88;;;14.30;;
4971;SDS011;2501;51.214;6.768;2023-07-02T08:18:13;33.92;;;14.50;;
4971;SDS011;2501;51.214;6.768;2023-07-02T08:20:42;36.10;;;16.17;;
4971;SDS011;2501;51.214;6.768;2023-07-02T08:23:11;37.03;;;15.90;;
4971;SDS011;2501;51.214;6.768;2023-07-02T08:25:40;38.20;;;16.75;;
4971;SDS011;2501;51.214;6.768;2023-07-02T08:28:08;35.50;;;14.93;;
4971;SDS011;2501;51.214;6.768;2023-07-02T08:30:39;39.28;;;16.15;;
4971;SDS011;2501;51.214;6.768;2023-07-02T08:33:08;35.92;;;16.45;;
4971;SDS011;2501;51.214;6.768;2023-07-02T08:35:36;36.40;;;16.10;;
4971;SDS011;2501;51.214;6.768;2023-07-02T08:38:05;41.20;;;16.02;;
4971;SDS011;2501;51.214;6.768;2023-07-02T08:40:34;33.47;;;14.70;;
4971;SDS011;2501;51.214;6.768;2023-07-02T08:43:02;38.00;;;16.80;;
4971;SDS011;2501;51.214;6.768;2023-07-02T08:45:31;38.00;;;16.77;;
4971;SDS011;2501;51.214;6.768;2023-07-02T08:48:03;36.55;;;13.73;;
4971;SDS011;2501;51.214;6.768;2023-07-02T08:50:33;29.77;;;12.77;;
4971;SDS011;2501;51.214;6.768;2023-07-02T08:53:02;29.00;;;13.37;;
4971;SDS011;2501;51.214;6.768;2023-07-02T08:55:30;28.40;;;11.90;;
4971;SDS011;2501;51.214;6.768;2023-07-02T08:57:58;32.03;;;13.38;;
4971;SDS011;2501;51.214;6.768;2023-07-02T09:00:27;28.43;;;14.23;;
4971;SDS011;2501;51.214;6.768;2023-07-02T09:02:56;28.70;;;14.02;;
4971;SDS011;2501;51.214;6.768;2023-07-02T09:05:27;32.60;;;13.80;;
4971;SDS011;2501;51.214;6.768;2023-07-02T09:07:55;37.45;;;14.68;;
4971;SDS011;2501;51.214;6.768;2023-07-02T09:10:27;42.38;;;15.65;;
4971;SDS011;2501;51.214;6.768;2023-07-02T09:13:03;41.08;;;16.13;;
4971;SDS011;2501;51.214;6.768;2023-07-02T09:15:35;39.88;;;16.75;;
4971;SDS011;2501;51.214;6.768;2023-07-02T09:18:14;38.50;;;17.10;;
4971;SDS011;2501;51.214;6.768;2023-07-02T09:20:46;38.28;;;17.13;;
4971;SDS011;2501;51.214;6.768;2023-07-02T09:23:18;35.25;;;16.38;;
4971;SDS011;2501;51.214;6.768;2023-07-02T09:25:46;35.30;;;16.15;;
4971;SDS011;2501;51.214;6.768;2023-07-02T09:28:16;38.03;;;17.00;;
4971;SDS011;2501;51.214;6.768;2023-07-02T09:30:48;35.30;;;15.82;;
4971;SDS011;2501;51.214;6.768;2023-07-02T09:33:18;46.15;;;16.63;;
4971;SDS011;2501;51.214;6.768;2023-07-02T09:35:49;41.92;;;17.25;;
4971;SDS011;2501;51.214;6.768;2023-07-02T09:38:22;45.38;;;17.50;;
4971;SDS011;2501;51.214;6.768;2023-07-02T09:40:51;46.45;;;17.98;;
4971;SDS011;2501;51.214;6.768;2023-07-02T09:43:21;42.25;;;17.92;;
4971;SDS011;2501;51.214;6.768;2023-07-02T09:45:50;38.72;;;17.38;;
4971;SDS011;2501;51.214;6.768;2023-07-02T09:48:22;37.67;;;16.50;;
4971;SDS011;2501;51.214;6.768;2023-07-02T09:50:56;39.63;;;17.83;;
4971;SDS011;2501;51.214;6.768;2023-07-02T09:53:27;37.55;;;16.35;;
4971;SDS011;2501;51.214;6.768;2023-07-02T09:55:57;37.00;;;17.02;;
4971;SDS011;2501;51.214;6.768;2023-07-02T09:58:27;44.83;;;17.85;;
4971;SDS011;2501;51.214;6.768;2023-07-02T10:00:56;36.08;;;14.70;;
4971;SDS011;2501;51.214;6.768;2023-07-02T10:03:29;44.55;;;16.73;;
4971;SDS011;2501;51.214;6.768;2023-07-02T10:06:07;39.95;;;15.63;;
4971;SDS011;2501;51.214;6.768;2023-07-02T10:08:35;37.63;;;16.42;;
4971;SDS011;2501;51.214;6.768;2023-07-02T10:11:08;40.97;;;16.73;;
4971;SDS011;2501;51.214;6.768;2023-07-02T10:13:38;32.00;;;16.13;;
4971;SDS011;2501;51.214;6.768;2023-07-02T10:16:07;38.17;;;16.67;;
4971;SDS011;2501;51.214;6.768;2023-07-02T10:18:35;38.13;;;16.60;;
4971;SDS011;2501;51.214;6.768;2023-07-02T10:21:16;40.03;;;15.82;;
4971;SDS011;2501;51.214;6.768;2023-07-02T10:23:45;28.40;;;13.70;;
4971;SDS011;2501;51.214;6.768;2023-07-02T10:26:14;33.67;;;12.10;;
4971;SDS011;2501;51.214;6.768;2023-07-02T10:28:55;28.38;;;11.85;;
4971;SDS011;2501;51.214;6.768;2023-07-02T10:31:24;24.10;;;10.98;;
4971;SDS011;2501;51.214;6.768;2023-07-02T10:33:52;30.05;;;11.05;;
4971;SDS011;2501;51.214;6.768;2023-07-02T10:36:24;24.70;;;10.95;;
4971;SDS011;2501;51.214;6.768;2023-07-02T10:38:53;27.63;;;11.70;;
4971;SDS011;2501;51.214;6.768;2023-07-02T10:41:25;20.98;;;10.23;;
4971;SDS011;2501;51.214;6.768;2023-07-02T10:44:04;27.30;;;10.60;;
4971;SDS011;2501;51.214;6.768;2023-07-02T10:46:33;23.30;;;10.90;;
4971;SDS011;2501;51.214;6.768;2023-07-02T10:49:02;25.25;;;10.80;;
4971;SDS011;2501;51.214;6.768;2023-07-02T10:51:36;28.42;;;10.73;;
4971;SDS011;2501;51.214;6.768;2023-07-02T10:54:05;19.08;;;9.70;;
4971;SDS011;2501;51.214;6.768;2023-07-02T10:56:34;21.40;;;8.83;;
4971;SDS011;2501;51.214;6.768;2023-07-02T10:59:02;19.65;;;9.82;;
4971;SDS011;2501;51.214;6.768;2023-07-02T11:01:31;23.02;;;9.50;;
4971;SDS011;2501;51.214;6.768;2023-07-02T11:04:00;23.55;;;9.90;;
4971;SDS011;2501;51.214;6.768;2023-07-02T11:06:30;23.48;;;10.10;;
4971;SDS011;2501;51.214;6.768;2023-07-02T11:09:02;22.57;;;10.07;;
4971;SDS011;2501;51.214;6.768;2023-07-02T11:11:31;23.48;;;9.82;;
4971;SDS011;2501;51.214;6.768;2023-07-02T11:13:59;24.38;;;9.70;;
4971;SDS011;2501;51.214;6.768;2023-07-02T11:16:28;22.58;;;9.60;;
4971;SDS011;2501;51.214;6.768;2023-07-02T11:19:05;21.50;;;8.98;;
4971;SDS011;2501;51.214;6.768;2023-07-02T11:21:35;23.92;;;8.63;;
4971;SDS011;2501;51.214;6.768;2023-07-02T11:24:07;23.10;;;9.35;;
4971;SDS011;2501;51.214;6.768;2023-07-02T11:26:36;22.67;;;9.85;;
4971;SDS011;2501;51.214;6.768;2023-07-02T11:29:07;22.65;;;8.52;;
4971;SDS011;2501;51.214;6.768;2023-07-02T11:31:38;19.10;;;7.37;;
4971;SDS011;2501;51.214;6.768;2023-07-02T11:34:11;22.63;;;8.40;;
4971;SDS011;2501;51.214;6.768;2023-07-02T11:36:40;29.73;;;9.57;;
4971;SDS011;2501;51.214;6.768;2023-07-02T11:39:11;16.65;;;8.50;;
4971;SDS011;2501;51.214;6.768;2023-07-02T11:41:41;18.40;;;8.60;;
4971;SDS011;2501;51.214;6.768;2023-07-02T11:44:11;19.90;;;9.33;;
4971;SDS011;2501;51.214;6.768;2023-07-02T11:46:40;27.60;;;9.30;;
4971;SDS011;2501;51.214;6.768;2023-07-02T11:49:09;21.38;;;8.95;;
4971;SDS011;2501;51.214;6.768;2023-07-02T11:51:37;23.30;;;9.43;;
4971;SDS011;2501;51.214;6.768;2023-07-02T11:54:06;18.77;;;9.60;;
4971;SDS011;2501;51.214;6.768;2023-07-02T11:56:38;15.93;;;7.25;;
4971;SDS011;2501;51.214;6.768;2023-07-02T11:59:07;23.38;;;8.20;;
4971;SDS011;2501;51.214;6.768;2023-07-02T12:01:36;21.10;;;8.80;;
4971;SDS011;2501;51.214;6.768;2023-07-02T12:04:05;28.73;;;10.18;;
4971;SDS011;2501;51.214;6.768;2023-07-02T12:06:35;21.48;;;9.82;;
4971;SDS011;2501;51.214;6.768;2023-07-02T12:09:04;20.77;;;9.10;;
4971;SDS011;2501;51.214;6.768;2023-07-02T12:11:32;22.58;;;8.20;;
4971;SDS011;2501;51.214;6.768;2023-07-02T12:14:03;19.98;;;8.45;;
4971;SDS011;2501;51.214;6.768;2023-07-02T12:16:32;18.92;;;9.40;;
4971;SDS011;2501;51.214;6.768;2023-07-02T12:19:00;25.08;;;9.45;;
4971;SDS011;2501;51.214;6.768;2023-07-02T12:21:29;18.90;;;7.97;;
4971;SDS011;2501;51.214;6.768;2023-07-02T12:23:57;16.37;;;8.40;;
4971;SDS011;2501;51.214;6.768;2023-07-02T12:26:26;21.37;;;8.97;;
4971;SDS011;2501;51.214;6.768;2023-07-02T12:28:54;17.43;;;7.50;;
4971;SDS011;2501;51.214;6.768;2023-07-02T12:31:25;17.60;;;8.03;;
4971;SDS011;2501;51.214;6.768;2023-07-02T12:33:53;19.85;;;7.80;;
4971;SDS011;2501;51.214;6.768;2023-07-02T12:36:22;16.95;;;8.55;;
4971;SDS011;2501;51.214;6.768;2023-07-02T12:38:51;21.13;;;6.93;;
4971;SDS011;2501;51.214;6.768;2023-07-02T12:41:19;17.25;;;7.43;;
4971;SDS011;2501;51.214;6.768;2023-07-02T12:43:48;18.35;;;7.90;;
4971;SDS011;2501;51.214;6.768;2023-07-02T12:46:16;14.15;;;7.68;;
4971;SDS011;2501;51.214;6.768;2023-07-02T12:48:47;15.82;;;7.10;;
4971;SDS011;2501;51.214;6.768;2023-07-02T12:51:16;18.30;;;7.55;;
4971;SDS011;2501;51.214;6.768;2023-07-02T12:53:44;19.27;;;7.03;;
4971;SDS011;2501;51.214;6.768;2023-07-02T12:56:57;15.63;;;7.53;;
4971;SDS011;2501;51.214;6.768;2023-07-02T13:42:49;20.15;;;8.70;;
4971;SDS011;2501;51.214;6.768;2023-07-02T13:45:18;24.45;;;7.75;;
4971;SDS011;2501;51.214;6.768;2023-07-02T13:47:47;18.48;;;7.40;;
4971;SDS011;2501;51.214;6.768;2023-07-02T13:50:16;17.98;;;7.53;;
4971;SDS011;2501;51.214;6.768;2023-07-02T13:52:44;18.95;;;8.10;;
4971;SDS011;2501;51.214;6.768;2023-07-02T13:55:15;20.48;;;8.35;;
4971;SDS011;2501;51.214;6.768;2023-07-02T13:57:43;19.87;;;7.93;;
4971;SDS011;2501;51.214;6.768;2023-07-02T14:00:14;19.23;;;8.40;;
4971;SDS011;2501;51.214;6.768;2023-07-02T14:02:43;16.92;;;7.70;;
4971;SDS011;2501;51.214;6.768;2023-07-02T14:05:12;19.90;;;8.95;;
4971;SDS011;2501;51.214;6.768;2023-07-02T14:07:40;20.13;;;8.33;;
4971;SDS011;2501;51.214;6.768;2023-07-02T14:10:09;23.83;;;8.25;;
4971;SDS011;2501;51.214;6.768;2023-07-02T14:12:38;20.50;;;8.68;;
4971;SDS011;2501;51.214;6.768;2023-07-02T14:15:07;21.27;;;7.97;;
4971;SDS011;2501;51.214;6.768;2023-07-02T14:17:39;21.27;;;9.25;;
4971;SDS011;2501;51.214;6.768;2023-07-02T14:20:07;21.17;;;9.10;;
4971;SDS011;2501;51.214;6.768;2023-07-02T14:22:37;24.45;;;9.20;;
4971;SDS011;2501;51.214;6.768;2023-07-02T14:25:05;21.90;;;8.85;;
4971;SDS011;2501;51.214;6.768;2023-07-02T14:27:35;22.38;;;9.20;;
4971;SDS011;2501;51.214;6.768;2023-07-02T14:30:03;19.80;;;9.13;;
4971;SDS011;2501;51.214;6.768;2023-07-02T14:32:32;23.85;;;9.60;;
4971;SDS011;2501;51.214;6.768;2023-07-02T14:35:04;21.23;;;8.30;;
4971;SDS011;2501;51.214;6.768;2023-07-02T14:37:33;21.55;;;8.88;;
4971;SDS011;2501;51.214;6.768;2023-07-02T14:40:02;24.48;;;10.95;;
4971;SDS011;2501;51.214;6.768;2023-07-02T14:42:31;18.70;;;8.95;;
4971;SDS011;2501;51.214;6.768;2023-07-02T14:44:59;22.48;;;8.10;;
4971;SDS011;2501;51.214;6.768;2023-07-02T14:47:28;15.18;;;7.38;;
4971;SDS011;2501;51.214;6.768;2023-07-02T14:49:56;20.40;;;9.70;;
4971;SDS011;2501;51.214;6.768;2023-07-02T14:52:27;23.23;;;9.57;;
4971;SDS011;2501;51.214;6.768;2023-07-02T14:54:55;22.25;;;9.35;;
4971;SDS011;2501;51.214;6.768;2023-07-02T14:57:26;16.73;;;8.77;;
4971;SDS011;2501;51.214;6.768;2023-07-02T14:59:54;24.73;;;10.02;;
4971;SDS011;2501;51.214;6.768;2023-07-02T15:02:23;21.43;;;9.13;;
4971;SDS011;2501;51.214;6.768;2023-07-02T15:04:51;22.40;;;8.70;;
4971;SDS011;2501;51.214;6.768;2023-07-02T15:07:20;20.65;;;9.05;;
4971;SDS011;2501;51.214;6.768;2023-07-02T15:09:51;20.77;;;8.95;;
4971;SDS011;2501;51.214;6.768;2023-07-02T15:12:19;19.97;;;9.17;;
4971;SDS011;2501;51.214;6.768;2023-07-02T15:14:47;17.88;;;8.50;;
4971;SDS011;2501;51.214;6.768;2023-07-02T15:17:16;16.42;;;8.02;;
4971;SDS011;2501;51.214;6.768;2023-07-02T15:19:44;20.10;;;9.40;;
4971;SDS011;2501;51.214;6.768;2023-07-02T15:22:13;20.50;;;8.75;;
4971;SDS011;2501;51.214;6.768;2023-07-02T15:24:41;20.53;;;9.10;;
4971;SDS011;2501;51.214;6.768;2023-07-02T15:27:12;24.55;;;10.10;;
4971;SDS011;2501;51.214;6.768;2023-07-02T15:29:41;22.45;;;9.25;;
4971;SDS011;2501;51.214;6.768;2023-07-02T15:32:09;23.17;;;8.45;;
4971;SDS011;2501;51.214;6.768;2023-07-02T15:34:38;26.90;;;9.30;;
4971;SDS011;2501;51.214;6.768;2023-07-02T15:37:06;17.33;;;9.43;;
4971;SDS011;2501;51.214;6.768;2023-07-02T15:39:34;23.77;;;9.10;;
4971;SDS011;2501;51.214;6.768;2023-07-02T15:42:03;24.83;;;8.65;;
4971;SDS011;2501;51.214;6.768;2023-07-02T15:44:35;24.25;;;9.63;;
4971;SDS011;2501;51.214;6.768;2023-07-02T15:47:04;22.33;;;8.70;;
4971;SDS011;2501;51.214;6.768;2023-07-02T15:49:32;21.30;;;10.05;;
4971;SDS011;2501;51.214;6.768;2023-07-02T15:52:01;20.25;;;9.10;;